Terminal Aerodrome Forecast
Issued by NWS

Home | Current Version | Previous Version | Text Only | Print | Product List | Glossary Off
Versions: 1 2 3 4 5 6 7 8 9 10 11 12 13 14 15

000
FTUS43 KGRB 252300
TAFCWA
TAF
KCWA 252322Z 2600/2624 01003KT P6SM SCT100
     FM261400 33006KT P6SM SCT250
      AMD LTD TO CLD VIS AND WIND 2603/2611=

USA.gov is the U.S. government's official web portal to all federal, state and local government web resources and services.